Time,TemperatureF,DewpointF,PressureIn,WindDirection,WindDirectionDegrees,WindSpeedMPH,WindSpeedGustMPH,Humidity,HourlyPrecipIn,Conditions,Clouds,dailyrainin,SolarRadiationWatts/m^2,SoftwareType,DateUTC
2013-09-06 00:00:00,53.0,49.0,-100.00,SSW,202,4.0,-999.0,84,-99.99,,,-99.99,0.000000,,2013-09-06 04:00:00,
2013-09-06 00:44:00,53.0,49.0,-100.00,SSW,202,4.0,-999.0,84,-99.99,,,-99.99,0.000000,,2013-09-06 04:44:00,
2013-09-06 00:54:00,53.0,49.0,-100.00,SSW,202,4.0,-999.0,84,-99.99,,,-99.99,0.000000,,2013-09-06 04:54:00,
2013-09-06 01:00:00,53.0,49.0,-100.00,SW,225,5.0,-999.0,86,-99.99,,,-99.99,0.000000,,2013-09-06 05:00:00,
2013-09-06 01:43:00,53.0,49.0,-100.00,SW,225,5.0,-999.0,86,-99.99,,,-99.99,0.000000,,2013-09-06 05:43:00,
2013-09-06 01:52:00,53.0,49.0,-100.00,SW,225,5.0,-999.0,86,-99.99,,,-99.99,0.000000,,2013-09-06 05:52:00,
2013-09-06 02:00:00,53.0,49.0,-100.00,SW,225,7.0,-999.0,85,-99.99,,,-99.99,0.000000,,2013-09-06 06:00:00,
2013-09-06 02:42:00,53.0,49.0,-100.00,SW,225,7.0,-999.0,85,-99.99,,,-99.99,0.000000,,2013-09-06 06:42:00,
2013-09-06 02:53:00,53.0,49.0,-100.00,SW,225,7.0,-999.0,85,-99.99,,,-99.99,0.000000,,2013-09-06 06:53:00,
2013-09-06 03:00:00,53.0,48.0,-100.00,SW,225,7.0,-999.0,84,-99.99,,,-99.99,0.000000,,2013-09-06 07:00:00,
2013-09-06 03:42:00,53.0,48.0,-100.00,SW,225,7.0,-999.0,84,-99.99,,,-99.99,0.000000,,2013-09-06 07:42:00,
2013-09-06 03:52:00,53.0,48.0,-100.00,SW,225,7.0,-999.0,84,-99.99,,,-99.99,0.000000,,2013-09-06 07:52:00,
2013-09-06 06:00:00,52.0,49.0,-100.00,SSW,202,4.0,-999.0,87,-99.99,,,-99.99,0.000000,,2013-09-06 10:00:00,
2013-09-06 06:43:00,52.0,49.0,-100.00,SSW,202,4.0,-999.0,87,-99.99,,,-99.99,0.000000,,2013-09-06 10:43:00,
2013-09-06 06:53:00,52.0,49.0,-100.00,SSW,202,4.0,-999.0,87,-99.99,,,-99.99,0.000000,,2013-09-06 10:53:00,
2013-09-06 07:00:00,51.0,48.0,-100.00,SSW,202,4.0,-999.0,89,-99.99,,,-99.99,0.000000,,2013-09-06 11:00:00,
2013-09-06 07:42:00,51.0,48.0,-100.00,SSW,202,4.0,-999.0,89,-99.99,,,-99.99,0.000000,,2013-09-06 11:42:00,
2013-09-06 07:52:00,51.0,48.0,-100.00,SSW,202,4.0,-999.0,89,-99.99,,,-99.99,0.000000,,2013-09-06 11:52:00,
2013-09-06 08:00:00,51.0,48.0,-100.00,SSW,202,4.0,-999.0,88,-99.99,,,-99.99,12.760000,,2013-09-06 12:00:00,
2013-09-06 08:42:00,51.0,48.0,-100.00,SSW,202,4.0,-999.0,88,-99.99,,,-99.99,12.760000,,2013-09-06 12:42:00,
2013-09-06 08:52:00,51.0,48.0,-100.00,SSW,202,4.0,-999.0,88,-99.99,,,-99.99,12.760000,,2013-09-06 12:52:00,
2013-09-06 11:00:00,62.0,51.0,-100.00,SW,225,7.0,-999.0,66,-99.99,,,-99.99,466.320007,,2013-09-06 15:00:00,
2013-09-06 11:43:00,62.0,51.0,-100.00,SW,225,7.0,-999.0,66,-99.99,,,-99.99,466.320007,,2013-09-06 15:43:00,
2013-09-06 11:53:00,62.0,51.0,-100.00,SW,225,7.0,-999.0,66,-99.99,,,-99.99,466.320007,,2013-09-06 15:53:00,
2013-09-06 12:00:00,67.0,55.0,-100.00,SSW,202,8.0,-999.0,65,-99.99,,,-99.99,518.520020,,2013-09-06 16:00:00,
2013-09-06 12:43:00,67.0,55.0,-100.00,SSW,202,8.0,-999.0,65,-99.99,,,-99.99,518.520020,,2013-09-06 16:43:00,
2013-09-06 12:53:00,67.0,55.0,-100.00,SSW,202,8.0,-999.0,65,-99.99,,,-99.99,518.520020,,2013-09-06 16:53:00,
2013-09-06 13:00:00,69.0,57.0,-100.00,SW,225,8.0,-999.0,66,-99.99,,,-99.99,443.119995,,2013-09-06 17:00:00,
2013-09-06 13:43:00,69.0,57.0,-100.00,SW,225,8.0,-999.0,66,-99.99,,,-99.99,443.119995,,2013-09-06 17:43:00,
2013-09-06 13:53:00,69.0,57.0,-100.00,SW,225,8.0,-999.0,66,-99.99,,,-99.99,443.119995,,2013-09-06 17:53:00,
2013-09-06 14:00:00,71.0,59.0,-100.00,SSW,202,8.0,-999.0,66,-99.99,,,-99.99,411.799988,,2013-09-06 18:00:00,
2013-09-06 14:42:00,71.0,59.0,-100.00,SSW,202,8.0,-999.0,66,-99.99,,,-99.99,411.799988,,2013-09-06 18:42:00,
2013-09-06 14:52:00,71.0,59.0,-100.00,SSW,202,8.0,-999.0,66,-99.99,,,-99.99,411.799988,,2013-09-06 18:52:00,
2013-09-06 17:00:00,72.0,61.0,-100.00,South,180,7.0,-999.0,68,-99.99,,,-99.99,238.960007,,2013-09-06 21:00:00,
2013-09-06 17:43:00,72.0,61.0,-100.00,South,180,7.0,-999.0,68,-99.99,,,-99.99,238.960007,,2013-09-06 21:43:00,
2013-09-06 17:54:00,72.0,61.0,-100.00,South,180,7.0,-999.0,68,-99.99,,,-99.99,238.960007,,2013-09-06 21:54:00,
2013-09-06 18:00:00,68.0,61.0,-100.00,SSW,202,6.0,-999.0,79,-99.99,,,-99.99,84.680000,,2013-09-06 22:00:00,
2013-09-06 18:44:00,68.0,61.0,-100.00,SSW,202,6.0,-999.0,79,-99.99,,,-99.99,84.680000,,2013-09-06 22:44:00,
2013-09-06 18:54:00,68.0,61.0,-100.00,SSW,202,6.0,-999.0,79,-99.99,,,-99.99,84.680000,,2013-09-06 22:54:00,
2013-09-06 19:00:00,64.0,61.0,-100.00,South,180,6.0,-999.0,88,0.01,,,-99.99,22.040001,,2013-09-06 23:00:00,
2013-09-06 19:43:00,64.0,61.0,-100.00,South,180,6.0,-999.0,88,0.01,,,-99.99,22.040001,,2013-09-06 23:43:00,
2013-09-06 19:52:00,64.0,61.0,-100.00,South,180,6.0,-999.0,88,0.01,,,-99.99,22.040001,,2013-09-06 23:52:00,
2013-09-06 20:00:00,64.0,61.0,-100.00,South,180,5.0,-999.0,89,-99.99,,,-99.99,20.879999,,2013-09-07 00:00:00,
2013-09-06 20:42:00,64.0,61.0,-100.00,South,180,5.0,-999.0,89,-99.99,,,-99.99,20.879999,,2013-09-07 00:42:00,
2013-09-06 20:52:00,64.0,61.0,-100.00,South,180,5.0,-999.0,89,-99.99,,,-99.99,20.879999,,2013-09-07 00:52:00,
2013-09-06 21:00:00,64.0,60.0,-100.00,South,180,5.0,-999.0,88,-99.99,,,-99.99,1.160000,,2013-09-07 01:00:00,
2013-09-06 21:42:00,64.0,60.0,-100.00,South,180,5.0,-999.0,88,-99.99,,,-99.99,1.160000,,2013-09-07 01:42:00,
2013-09-06 21:53:00,64.0,60.0,-100.00,South,180,5.0,-999.0,88,-99.99,,,-99.99,1.160000,,2013-09-07 01:53:00,
2013-09-06 22:00:00,64.0,61.0,-100.00,South,180,4.0,-999.0,89,-99.99,,,-99.99,0.000000,,2013-09-07 02:00:00,
2013-09-06 22:43:00,64.0,61.0,-100.00,South,180,4.0,-999.0,89,-99.99,,,-99.99,0.000000,,2013-09-07 02:43:00,
2013-09-06 22:52:00,64.0,61.0,-100.00,South,180,4.0,-999.0,89,-99.99,,,-99.99,0.000000,,2013-09-07 02:52:00,
2013-09-06 23:00:00,64.0,61.0,-100.00,SSW,202,4.0,-999.0,91,-99.99,,,-99.99,0.000000,,2013-09-07 03:00:00,
2013-09-06 23:45:00,64.0,61.0,-100.00,SSW,202,4.0,-999.0,91,-99.99,,,-99.99,0.000000,,2013-09-07 03:45:00,
2013-09-06 23:55:00,64.0,61.0,-100.00,SSW,202,4.0,-999.0,91,-99.99,,,-99.99,0.000000,,2013-09-07 03:55:00,